Station History

Weather Underground - logo

Station Historical Data
Daily Summary for January 13, 2018 Units:  Metric    English   Both
« Previous Day
Next Day »
Daily Weekly Monthly Yearly Custom
  High: Low: Average:
Temperature: 10.5 °C 8.6 °C 9.4 °C
Dew Point: 10.1 °C 8.1 °C 8.9 °C
Humidity: 97 % 95 % 97 %
Wind Speed: 4.8 km/h 0 km/h 0.8 km/h
Wind Gust: 4.8 km/h - -
Wind:- - West
Pressure: 1027 hPa 1022.6 hPa -
Precipitation: 0.25 mm    
Historical Graphs
 
 
Tabular Data for January 13, 2018
Time Temperature Dew Point Pressure Wind Wind Speed Wind Gust Humidity Rainfall Rate (Hourly)
00:04 9.8 °C 9.1 °C 1025.6 hPa Calm     95 % 0 mm
00:22 9.2 °C 8.4 °C 1025.3 hPa NW 1.9 km/h 1.9 km/h 95 % 0 mm
00:32 9 °C 8.2 °C 1025.6 hPa NW 3.7 km/h 3.7 km/h 95 % 0 mm
00:45 8.8 °C 8.2 °C 1025.3 hPa NW 3.7 km/h 3.7 km/h 96 % 0 mm
00:51 8.7 °C 8.1 °C 1025.3 hPa NW 4.8 km/h 4.8 km/h 96 % 0 mm
00:56 8.7 °C 8.1 °C 1025.3 hPa NW 3.7 km/h 3.7 km/h 96 % 0 mm
01:02 8.7 °C 8.1 °C 1025.3 hPa NNW 1.9 km/h 1.9 km/h 96 % 0 mm
01:15 8.7 °C 8.1 °C 1025.3 hPa WNW 3.7 km/h 3.7 km/h 96 % 0 mm
01:27 8.7 °C 8.1 °C 1025.3 hPa NW 1.9 km/h 1.9 km/h 96 % 0 mm
01:40 8.7 °C 8.2 °C 1025.3 hPa NNW 3.7 km/h 3.7 km/h 97 % 0 mm
01:52 8.7 °C 8.2 °C 1025.3 hPa Calm     97 % 0 mm
01:57 8.7 °C 8.3 °C 1025.3 hPa Calm     97 % 0 mm
02:06 8.8 °C 8.3 °C 1025.3 hPa Calm     97 % 0 mm
02:11 8.9 °C 8.4 °C 1025.3 hPa Calm     97 % 0 mm
02:23 8.9 °C 8.4 °C 1025.3 hPa NW 1.9 km/h 1.9 km/h 97 % 0 mm
02:34 8.9 °C 8.4 °C 1025.3 hPa NW 1.9 km/h 1.9 km/h 97 % 0 mm
02:47 8.8 °C 8.4 °C 1025.6 hPa WNW 1.9 km/h 1.9 km/h 97 % 0 mm
02:54 8.9 °C 8.5 °C 1025.3 hPa NNW 1.9 km/h 1.9 km/h 97 % 0 mm
03:10 9 °C 8.6 °C 1025.3 hPa NNW 1.6 km/h 1.6 km/h 97 % 0 mm
03:40 9.2 °C 8.7 °C 1025.3 hPa NNW 3.7 km/h 3.7 km/h 97 % 0 mm
03:46 9.2 °C 8.7 °C 1025.3 hPa Calm     97 % 0 mm
03:53 9.2 °C 8.8 °C 1025.3 hPa Calm     97 % 0 mm
04:03 9.2 °C 8.7 °C 1025.3 hPa NW 3.7 km/h 3.7 km/h 97 % 0 mm
04:17 9.1 °C 8.7 °C 1024.9 hPa NW 1.9 km/h 1.9 km/h 97 % 0 mm
04:29 9.1 °C 8.6 °C 1024.9 hPa Calm     97 % 0 mm
04:43 9.1 °C 8.6 °C 1024.9 hPa Calm     97 % 0 mm
04:54 8.9 °C 8.5 °C 1024.9 hPa WNW 3.7 km/h 3.7 km/h 97 % 0 mm
05:04 8.9 °C 8.4 °C 1024.9 hPa WNW 1.9 km/h   97 % 0 mm
05:24 8.8 °C 8.4 °C 1024.9 hPa NW 3.7 km/h 3.7 km/h 97 % 0 mm
05:31 8.8 °C 8.4 °C 1024.9 hPa WNW 1.9 km/h   97 % 0 mm
05:40 8.8 °C 8.4 °C 1024.9 hPa NW 1.9 km/h 1.9 km/h 97 % 0 mm
05:46 8.9 °C 8.4 °C 1024.9 hPa Calm     97 % 0 mm
05:53 8.8 °C 8.4 °C 1024.9 hPa NW 3.7 km/h 3.7 km/h 97 % 0 mm
06:08 8.8 °C 8.3 °C 1024.9 hPa Calm     97 % 0 mm
06:16 8.8 °C 8.4 °C 1024.9 hPa Calm     97 % 0 mm
06:23 8.8 °C 8.3 °C 1025.3 hPa Calm     97 % 0 mm
06:36 8.8 °C 8.4 °C 1025.3 hPa Calm     97 % 0 mm
06:46 8.8 °C 8.4 °C 1025.3 hPa Calm     97 % 0 mm
06:59 8.8 °C 8.4 °C 1025.3 hPa Calm     97 % 0 mm
07:20 8.7 °C 8.3 °C 1025.6 hPa Calm     97 % 0 mm
07:28 8.7 °C 8.3 °C 1025.6 hPa Calm     97 % 0 mm
07:33 8.7 °C 8.2 °C 1026 hPa NNE 1.9 km/h 1.9 km/h 97 % 0 mm
07:48 8.6 °C 8.1 °C 1026 hPa NNE 1.9 km/h   97 % 0 mm
07:53 8.6 °C 8.1 °C 1026 hPa Calm     97 % 0 mm
08:09 8.6 °C 8.1 °C 1026.3 hPa Calm     97 % 0 mm
08:25 8.7 °C 8.2 °C 1026.3 hPa Calm     97 % 0 mm
08:30 8.7 °C 8.2 °C 1026.3 hPa Calm     97 % 0.25 mm
08:36 8.7 °C 8.2 °C 1026.3 hPa Calm   0.2 km/h 97 % 0.25 mm
08:51 8.7 °C 8.3 °C 1026.3 hPa Calm     97 % 0.25 mm
09:16 8.7 °C 8.3 °C 1026.6 hPa Calm     97 % 0.25 mm
09:25 8.9 °C 8.5 °C 1026.6 hPa Calm     97 % 0.25 mm
09:30 8.9 °C 8.5 °C 1026.6 hPa Calm     97 % 0 mm
09:38 9.1 °C 8.6 °C 1026.6 hPa Calm     97 % 0 mm
09:45 9.2 °C 8.7 °C 1026.6 hPa Calm     97 % 0 mm
09:59 9.1 °C 8.7 °C 1026.6 hPa Calm     97 % 0 mm
10:06 9.2 °C 8.8 °C 1027 hPa Calm     97 % 0 mm
10:44 9.5 °C 9.1 °C 1026.6 hPa Calm     97 % 0 mm
10:51 9.4 °C 9 °C 1026.3 hPa NNE 1.9 km/h   97 % 0 mm
10:56 9.3 °C 8.9 °C 1026.6 hPa Calm     97 % 0 mm
11:01 9.4 °C 9 °C 1026.3 hPa Calm     97 % 0 mm
11:14 9.6 °C 9.1 °C 1026.3 hPa Calm     97 % 0 mm
11:19 9.7 °C 9.2 °C 1026 hPa NNE 1.9 km/h   97 % 0 mm
11:26 9.7 °C 9.2 °C 1026 hPa Calm     97 % 0 mm
11:33 9.7 °C 9.2 °C 1025.6 hPa Calm     97 % 0 mm
11:44 9.9 °C 9.4 °C 1025.3 hPa Calm     97 % 0 mm
12:03 9.8 °C 9.4 °C 1024.9 hPa Calm     97 % 0 mm
12:14 10 °C 9.6 °C 1024.9 hPa Calm     97 % 0 mm
12:19 9.9 °C 9.5 °C 1024.6 hPa Calm     97 % 0 mm
12:29 10.1 °C 9.6 °C 1024.6 hPa NW 3.7 km/h 3.7 km/h 97 % 0 mm
12:53 10.1 °C 9.7 °C 1024.3 hPa Calm     97 % 0 mm
13:03 9.9 °C 9.5 °C 1023.9 hPa West 1.9 km/h   97 % 0 mm
13:36 10.3 °C 9.8 °C 1023.6 hPa Calm     97 % 0 mm
13:43 10.3 °C 9.9 °C 1023.6 hPa Calm     97 % 0 mm
13:50 10.4 °C 9.9 °C 1023.6 hPa Calm     97 % 0 mm
13:59 10.5 °C 10.1 °C 1023.6 hPa NNW 1.9 km/h   97 % 0 mm
14:05 10.4 °C 10 °C 1023.2 hPa Calm     97 % 0 mm
14:13 10.4 °C 10 °C 1023.2 hPa Calm     97 % 0 mm
14:19 10.4 °C 9.9 °C 1023.2 hPa Calm     97 % 0 mm
14:27 10.3 °C 9.9 °C 1023.2 hPa WSW 1.9 km/h 1.9 km/h 97 % 0 mm
14:33 10.3 °C 9.8 °C 1023.2 hPa Calm     97 % 0 mm
14:57 10.4 °C 9.9 °C 1022.9 hPa Calm     97 % 0 mm
15:05 10.3 °C 9.9 °C 1022.9 hPa NW 1.9 km/h 1.9 km/h 97 % 0 mm
15:18 10.3 °C 9.8 °C 1022.6 hPa NW 1.9 km/h   97 % 0 mm
15:44 10.2 °C 9.7 °C 1022.9 hPa Calm     97 % 0 mm
15:59 10.1 °C 9.7 °C 1022.9 hPa West 1.9 km/h 1.9 km/h 97 % 0 mm
16:07 10.1 °C 9.7 °C 1022.9 hPa Calm     97 % 0 mm
16:14 10.2 °C 9.7 °C 1022.9 hPa West 1.9 km/h   97 % 0 mm
16:24 10.2 °C 9.8 °C 1022.9 hPa Calm     97 % 0 mm
16:39 10.2 °C 9.7 °C 1022.9 hPa Calm     97 % 0 mm
16:52 10.2 °C 9.7 °C 1023.2 hPa Calm     97 % 0 mm
16:59 10.1 °C 9.7 °C 1023.2 hPa ESE 1.9 km/h   97 % 0 mm
17:20 10 °C 9.6 °C 1022.9 hPa SE 1.9 km/h 1.9 km/h 97 % 0 mm
17:42 9.9 °C 9.5 °C 1022.9 hPa Calm     97 % 0 mm
17:53 9.9 °C 9.4 °C 1022.9 hPa Calm     97 % 0 mm
18:06 9.9 °C 9.4 °C 1022.9 hPa Calm     97 % 0 mm
18:11 9.9 °C 9.4 °C 1022.9 hPa Calm     97 % 0 mm
18:17 9.9 °C 9.4 °C 1023.2 hPa Calm     97 % 0 mm
18:24 9.9 °C 9.5 °C 1023.2 hPa WNW 1.9 km/h   97 % 0 mm
18:53 9.8 °C 9.3 °C 1023.2 hPa Calm     97 % 0 mm
19:01 9.8 °C 9.4 °C 1023.2 hPa Calm     97 % 0 mm
19:39 9.6 °C 9.2 °C 1023.6 hPa Calm     97 % 0 mm
19:46 9.6 °C 9.2 °C 1023.6 hPa Calm     97 % 0 mm
19:51 9.7 °C 9.2 °C 1023.6 hPa Calm     97 % 0 mm
20:01 9.6 °C 9.2 °C 1023.6 hPa Calm     97 % 0 mm
20:12 9.6 °C 9.2 °C 1023.6 hPa Calm     97 % 0 mm
20:21 9.6 °C 9.1 °C 1023.9 hPa Calm     97 % 0 mm
20:32 9.5 °C 9.1 °C 1023.9 hPa Calm     97 % 0 mm
20:58 9.5 °C 9.1 °C 1023.9 hPa Calm     97 % 0 mm
21:05 9.4 °C 9 °C 1023.9 hPa Calm     97 % 0 mm
21:13 9.4 °C 9 °C 1023.9 hPa Calm     97 % 0 mm
21:24 9.4 °C 9 °C 1023.9 hPa Calm     97 % 0 mm
21:29 9.4 °C 9 °C 1023.9 hPa Calm     97 % 0 mm
21:37 9.4 °C 9 °C 1023.9 hPa Calm     97 % 0 mm
22:08 9.5 °C 9.1 °C 1023.9 hPa NW 1.9 km/h   97 % 0 mm
22:27 9.4 °C 8.9 °C 1023.9 hPa Calm     97 % 0 mm
22:38 9.4 °C 8.9 °C 1023.9 hPa Calm     97 % 0 mm
22:47 9.4 °C 8.9 °C 1024.3 hPa Calm     97 % 0 mm
22:58 9.3 °C 8.9 °C 1024.3 hPa Calm     97 % 0 mm
23:04 9.3 °C 8.9 °C 1024.3 hPa Calm     97 % 0 mm
23:11 9.3 °C 8.8 °C 1024.3 hPa NW 1.9 km/h 1.9 km/h 97 % 0 mm
23:20 9.2 °C 8.7 °C 1024.3 hPa Calm     97 % 0 mm
23:27 9.2 °C 8.7 °C 1024.3 hPa Calm     97 % 0 mm
23:32 9.2 °C 8.7 °C 1024.3 hPa Calm     97 % 0 mm
23:39 9.2 °C 8.7 °C 1024.3 hPa Calm     97 % 0 mm
23:45 9.2 °C 8.7 °C 1024.3 hPa Calm     97 % 0 mm
23:50 9.2 °C 8.7 °C 1024.3 hPa Calm     97 % 0 mm
23:58 9.2 °C 8.7 °C 1023.9 hPa Calm     97 % 0 mm
Park Place, Exeter, Tulare County, California, USA
Compliments of Weather Underground - 2 mb